sensor_id;sensor_type;location;lat;lon;timestamp;temperature;humidity
10905;DHT22;5505;51.450;9.254;2022-11-25T00:01:39;3.60;99.90
10905;DHT22;5505;51.450;9.254;2022-11-25T00:04:26;3.60;99.90
10905;DHT22;5505;51.450;9.254;2022-11-25T00:07:13;3.40;99.90
10905;DHT22;5505;51.450;9.254;2022-11-25T00:10:00;3.30;99.90
10905;DHT22;5505;51.450;9.254;2022-11-25T00:12:47;3.30;99.90
10905;DHT22;5505;51.450;9.254;2022-11-25T00:15:34;3.40;99.90
10905;DHT22;5505;51.450;9.254;2022-11-25T00:18:22;3.50;99.90
10905;DHT22;5505;51.450;9.254;2022-11-25T00:21:11;3.50;99.90
10905;DHT22;5505;51.450;9.254;2022-11-25T00:23:59;3.50;99.90
10905;DHT22;5505;51.450;9.254;2022-11-25T00:26:46;3.60;99.90
10905;DHT22;5505;51.450;9.254;2022-11-25T00:29:33;3.90;99.90
10905;DHT22;5505;51.450;9.254;2022-11-25T00:32:20;4.00;99.90
10905;DHT22;5505;51.450;9.254;2022-11-25T00:35:08;4.10;99.90
10905;DHT22;5505;51.450;9.254;2022-11-25T00:37:55;4.10;99.90
10905;DHT22;5505;51.450;9.254;2022-11-25T00:40:42;4.20;99.90
10905;DHT22;5505;51.450;9.254;2022-11-25T00:43:48;4.40;99.90
10905;DHT22;5505;51.450;9.254;2022-11-25T00:46:53;4.70;99.90
10905;DHT22;5505;51.450;9.254;2022-11-25T00:49:41;4.80;99.90
10905;DHT22;5505;51.450;9.254;2022-11-25T00:52:29;4.90;99.90
10905;DHT22;5505;51.450;9.254;2022-11-25T00:55:21;5.00;99.90
10905;DHT22;5505;51.450;9.254;2022-11-25T00:58:08;5.10;99.90
10905;DHT22;5505;51.450;9.254;2022-11-25T01:00:54;5.20;99.90
10905;DHT22;5505;51.450;9.254;2022-11-25T01:03:41;5.20;99.90
10905;DHT22;5505;51.450;9.254;2022-11-25T01:06:28;5.30;99.90
10905;DHT22;5505;51.450;9.254;2022-11-25T01:09:16;6.70;99.90
10905;DHT22;5505;51.450;9.254;2022-11-25T01:12:03;5.30;99.90
10905;DHT22;5505;51.450;9.254;2022-11-25T01:14:50;5.30;99.90
10905;DHT22;5505;51.450;9.254;2022-11-25T01:17:37;5.30;99.90
10905;DHT22;5505;51.450;9.254;2022-11-25T01:20:24;5.20;99.90
10905;DHT22;5505;51.450;9.254;2022-11-25T01:23:11;5.20;99.90
10905;DHT22;5505;51.450;9.254;2022-11-25T01:26:02;6.80;99.90
10905;DHT22;5505;51.450;9.254;2022-11-25T01:28:52;5.20;99.90
10905;DHT22;5505;51.450;9.254;2022-11-25T01:31:39;5.20;99.90
10905;DHT22;5505;51.450;9.254;2022-11-25T01:34:26;5.20;99.90
10905;DHT22;5505;51.450;9.254;2022-11-25T01:37:16;5.30;99.90
10905;DHT22;5505;51.450;9.254;2022-11-25T01:40:04;5.30;99.90
10905;DHT22;5505;51.450;9.254;2022-11-25T01:42:52;5.30;99.90
10905;DHT22;5505;51.450;9.254;2022-11-25T01:45:39;5.40;99.90
10905;DHT22;5505;51.450;9.254;2022-11-25T01:48:29;5.40;99.90
10905;DHT22;5505;51.450;9.254;2022-11-25T01:51:24;5.40;99.90
10905;DHT22;5505;51.450;9.254;2022-11-25T01:54:14;5.30;99.90
10905;DHT22;5505;51.450;9.254;2022-11-25T01:57:04;5.30;99.90
10905;DHT22;5505;51.450;9.254;2022-11-25T01:59:56;5.30;99.90
10905;DHT22;5505;51.450;9.254;2022-11-25T02:02:43;5.30;99.90
10905;DHT22;5505;51.450;9.254;2022-11-25T02:05:36;5.30;99.90
10905;DHT22;5505;51.450;9.254;2022-11-25T02:08:25;5.30;99.90
10905;DHT22;5505;51.450;9.254;2022-11-25T02:11:15;5.40;99.90
10905;DHT22;5505;51.450;9.254;2022-11-25T02:14:02;5.40;99.90
10905;DHT22;5505;51.450;9.254;2022-11-25T02:16:51;5.40;99.90
10905;DHT22;5505;51.450;9.254;2022-11-25T02:19:55;5.40;99.90
10905;DHT22;5505;51.450;9.254;2022-11-25T02:22:52;7.70;99.90
10905;DHT22;5505;51.450;9.254;2022-11-25T02:25:44;5.30;99.90
10905;DHT22;5505;51.450;9.254;2022-11-25T02:28:32;5.40;99.90
10905;DHT22;5505;51.450;9.254;2022-11-25T02:31:19;5.40;99.90
10905;DHT22;5505;51.450;9.254;2022-11-25T02:34:06;5.30;99.90
10905;DHT22;5505;51.450;9.254;2022-11-25T02:36:54;5.40;99.90
10905;DHT22;5505;51.450;9.254;2022-11-25T02:39:41;5.40;99.90
10905;DHT22;5505;51.450;9.254;2022-11-25T02:42:30;6.40;99.90
10905;DHT22;5505;51.450;9.254;2022-11-25T02:45:20;5.50;99.90
10905;DHT22;5505;51.450;9.254;2022-11-25T02:48:08;5.50;99.90
10905;DHT22;5505;51.450;9.254;2022-11-25T02:50:55;5.70;99.90
10905;DHT22;5505;51.450;9.254;2022-11-25T02:53:42;5.50;99.90
10905;DHT22;5505;51.450;9.254;2022-11-25T02:56:31;5.50;99.90
10905;DHT22;5505;51.450;9.254;2022-11-25T02:59:20;5.50;99.90
10905;DHT22;5505;51.450;9.254;2022-11-25T03:02:07;5.50;99.90
10905;DHT22;5505;51.450;9.254;2022-11-25T03:04:54;5.50;99.90
10905;DHT22;5505;51.450;9.254;2022-11-25T03:07:41;5.60;99.90
10905;DHT22;5505;51.450;9.254;2022-11-25T03:10:29;5.60;99.90
10905;DHT22;5505;51.450;9.254;2022-11-25T03:13:16;5.60;99.90
10905;DHT22;5505;51.450;9.254;2022-11-25T03:16:04;5.50;99.90
10905;DHT22;5505;51.450;9.254;2022-11-25T03:18:51;5.50;99.90
10905;DHT22;5505;51.450;9.254;2022-11-25T03:21:38;5.40;99.90
10905;DHT22;5505;51.450;9.254;2022-11-25T03:24:25;5.30;99.90
10905;DHT22;5505;51.450;9.254;2022-11-25T03:27:12;5.30;99.90
10905;DHT22;5505;51.450;9.254;2022-11-25T03:29:59;5.10;99.90
10905;DHT22;5505;51.450;9.254;2022-11-25T03:32:47;4.90;99.90
10905;DHT22;5505;51.450;9.254;2022-11-25T03:35:34;4.90;99.90
10905;DHT22;5505;51.450;9.254;2022-11-25T03:38:21;4.80;99.90
10905;DHT22;5505;51.450;9.254;2022-11-25T03:41:07;4.70;99.90
10905;DHT22;5505;51.450;9.254;2022-11-25T03:43:54;4.60;99.90
10905;DHT22;5505;51.450;9.254;2022-11-25T03:46:41;4.50;99.90
10905;DHT22;5505;51.450;9.254;2022-11-25T03:49:29;4.40;99.90
10905;DHT22;5505;51.450;9.254;2022-11-25T03:52:16;4.40;99.90
10905;DHT22;5505;51.450;9.254;2022-11-25T03:55:06;4.30;99.90
10905;DHT22;5505;51.450;9.254;2022-11-25T03:57:53;4.30;99.90
10905;DHT22;5505;51.450;9.254;2022-11-25T04:00:40;4.30;99.90
10905;DHT22;5505;51.450;9.254;2022-11-25T04:03:27;4.30;99.90
10905;DHT22;5505;51.450;9.254;2022-11-25T04:06:15;4.30;99.90
10905;DHT22;5505;51.450;9.254;2022-11-25T04:09:04;4.30;99.90
10905;DHT22;5505;51.450;9.254;2022-11-25T04:11:51;4.20;99.90
10905;DHT22;5505;51.450;9.254;2022-11-25T04:14:55;4.30;99.90
10905;DHT22;5505;51.450;9.254;2022-11-25T04:17:42;4.40;99.90
10905;DHT22;5505;51.450;9.254;2022-11-25T04:20:29;4.70;99.90
10905;DHT22;5505;51.450;9.254;2022-11-25T04:23:17;4.70;99.90
10905;DHT22;5505;51.450;9.254;2022-11-25T04:26:04;4.70;99.90
10905;DHT22;5505;51.450;9.254;2022-11-25T04:28:51;4.80;99.90
10905;DHT22;5505;51.450;9.254;2022-11-25T04:31:37;5.30;99.90
10905;DHT22;5505;51.450;9.254;2022-11-25T04:34:24;4.80;99.90
10905;DHT22;5505;51.450;9.254;2022-11-25T04:37:11;4.80;99.90
10905;DHT22;5505;51.450;9.254;2022-11-25T04:39:59;4.70;99.90
10905;DHT22;5505;51.450;9.254;2022-11-25T04:42:46;4.70;99.90
10905;DHT22;5505;51.450;9.254;2022-11-25T04:45:33;4.70;99.90
10905;DHT22;5505;51.450;9.254;2022-11-25T04:48:19;4.70;99.90
10905;DHT22;5505;51.450;9.254;2022-11-25T04:51:07;4.60;99.90
10905;DHT22;5505;51.450;9.254;2022-11-25T04:53:54;4.80;99.90
10905;DHT22;5505;51.450;9.254;2022-11-25T04:56:42;4.60;99.90
10905;DHT22;5505;51.450;9.254;2022-11-25T04:59:29;4.60;99.90
10905;DHT22;5505;51.450;9.254;2022-11-25T05:02:25;4.60;99.90
10905;DHT22;5505;51.450;9.254;2022-11-25T05:05:15;4.60;99.90
10905;DHT22;5505;51.450;9.254;2022-11-25T05:08:04;5.30;99.90
10905;DHT22;5505;51.450;9.254;2022-11-25T05:10:51;4.60;99.90
10905;DHT22;5505;51.450;9.254;2022-11-25T05:13:39;4.70;99.90
10905;DHT22;5505;51.450;9.254;2022-11-25T05:16:26;4.70;99.90
10905;DHT22;5505;51.450;9.254;2022-11-25T05:19:13;4.80;99.90
10905;DHT22;5505;51.450;9.254;2022-11-25T05:21:59;4.80;99.90
10905;DHT22;5505;51.450;9.254;2022-11-25T05:24:46;4.90;99.90
10905;DHT22;5505;51.450;9.254;2022-11-25T05:27:33;5.00;99.90
10905;DHT22;5505;51.450;9.254;2022-11-25T05:30:21;6.20;99.90
10905;DHT22;5505;51.450;9.254;2022-11-25T05:33:08;6.30;99.90
10905;DHT22;5505;51.450;9.254;2022-11-25T05:35:56;5.90;99.90
10905;DHT22;5505;51.450;9.254;2022-11-25T05:38:43;5.10;99.90
10905;DHT22;5505;51.450;9.254;2022-11-25T05:41:30;5.10;99.90
10905;DHT22;5505;51.450;9.254;2022-11-25T05:44:17;5.10;99.90
10905;DHT22;5505;51.450;9.254;2022-11-25T05:47:05;5.30;99.90
10905;DHT22;5505;51.450;9.254;2022-11-25T05:49:52;5.30;99.90
10905;DHT22;5505;51.450;9.254;2022-11-25T05:52:39;5.40;99.90
10905;DHT22;5505;51.450;9.254;2022-11-25T05:55:26;5.50;99.90
10905;DHT22;5505;51.450;9.254;2022-11-25T05:58:13;5.40;99.90
10905;DHT22;5505;51.450;9.254;2022-11-25T06:01:05;5.50;99.90
10905;DHT22;5505;51.450;9.254;2022-11-25T06:03:53;5.60;99.90
10905;DHT22;5505;51.450;9.254;2022-11-25T06:06:40;5.70;99.90
10905;DHT22;5505;51.450;9.254;2022-11-25T06:09:27;7.10;99.90
10905;DHT22;5505;51.450;9.254;2022-11-25T06:12:14;5.80;99.90
10905;DHT22;5505;51.450;9.254;2022-11-25T06:15:00;5.90;99.90
10905;DHT22;5505;51.450;9.254;2022-11-25T06:17:47;5.90;99.90
10905;DHT22;5505;51.450;9.254;2022-11-25T06:20:36;6.00;99.90
10905;DHT22;5505;51.450;9.254;2022-11-25T06:23:23;7.40;99.90
10905;DHT22;5505;51.450;9.254;2022-11-25T06:26:12;6.00;99.90
10905;DHT22;5505;51.450;9.254;2022-11-25T06:28:59;7.30;99.90
10905;DHT22;5505;51.450;9.254;2022-11-25T06:31:48;6.10;99.90
10905;DHT22;5505;51.450;9.254;2022-11-25T06:34:35;6.10;99.90
10905;DHT22;5505;51.450;9.254;2022-11-25T06:37:27;6.10;99.90
10905;DHT22;5505;51.450;9.254;2022-11-25T06:40:14;6.10;99.90
10905;DHT22;5505;51.450;9.254;2022-11-25T06:43:02;6.20;99.90
10905;DHT22;5505;51.450;9.254;2022-11-25T06:45:49;6.10;99.90
10905;DHT22;5505;51.450;9.254;2022-11-25T06:48:36;6.20;99.90
10905;DHT22;5505;51.450;9.254;2022-11-25T06:51:23;6.20;99.90
10905;DHT22;5505;51.450;9.254;2022-11-25T06:54:11;6.20;99.90
10905;DHT22;5505;51.450;9.254;2022-11-25T06:56:58;6.20;99.90
10905;DHT22;5505;51.450;9.254;2022-11-25T06:59:45;6.20;99.90
10905;DHT22;5505;51.450;9.254;2022-11-25T07:02:32;6.20;99.90
10905;DHT22;5505;51.450;9.254;2022-11-25T07:05:21;6.20;99.90
10905;DHT22;5505;51.450;9.254;2022-11-25T07:08:08;6.20;99.90
10905;DHT22;5505;51.450;9.254;2022-11-25T07:11:01;6.10;99.90
10905;DHT22;5505;51.450;9.254;2022-11-25T07:13:51;6.10;99.90
10905;DHT22;5505;51.450;9.254;2022-11-25T07:16:39;6.20;99.90
10905;DHT22;5505;51.450;9.254;2022-11-25T07:19:26;6.20;99.90
10905;DHT22;5505;51.450;9.254;2022-11-25T07:22:20;6.20;99.90
10905;DHT22;5505;51.450;9.254;2022-11-25T07:25:08;6.20;99.90
10905;DHT22;5505;51.450;9.254;2022-11-25T07:27:56;6.20;99.90
10905;DHT22;5505;51.450;9.254;2022-11-25T07:30:44;6.20;99.90
10905;DHT22;5505;51.450;9.254;2022-11-25T07:33:31;6.10;99.90
10905;DHT22;5505;51.450;9.254;2022-11-25T07:36:17;6.10;99.90
10905;DHT22;5505;51.450;9.254;2022-11-25T07:39:06;6.10;99.90
10905;DHT22;5505;51.450;9.254;2022-11-25T07:41:53;6.10;99.90
10905;DHT22;5505;51.450;9.254;2022-11-25T07:44:41;6.10;99.90
10905;DHT22;5505;51.450;9.254;2022-11-25T07:47:28;6.10;99.90
10905;DHT22;5505;51.450;9.254;2022-11-25T07:50:15;7.70;99.90
10905;DHT22;5505;51.450;9.254;2022-11-25T07:53:02;6.20;99.90
10905;DHT22;5505;51.450;9.254;2022-11-25T07:55:49;6.00;99.90
10905;DHT22;5505;51.450;9.254;2022-11-25T07:58:35;6.10;99.90
10905;DHT22;5505;51.450;9.254;2022-11-25T08:01:24;6.10;99.90
10905;DHT22;5505;51.450;9.254;2022-11-25T08:04:12;6.10;99.90
10905;DHT22;5505;51.450;9.254;2022-11-25T08:06:59;6.10;99.90
10905;DHT22;5505;51.450;9.254;2022-11-25T08:09:46;6.10;99.90
10905;DHT22;5505;51.450;9.254;2022-11-25T08:12:32;6.20;99.90
10905;DHT22;5505;51.450;9.254;2022-11-25T08:15:19;6.10;99.90
10905;DHT22;5505;51.450;9.254;2022-11-25T08:18:07;6.20;99.90
10905;DHT22;5505;51.450;9.254;2022-11-25T08:20:58;6.30;99.90
10905;DHT22;5505;51.450;9.254;2022-11-25T08:23:45;6.20;99.90
10905;DHT22;5505;51.450;9.254;2022-11-25T08:26:34;6.20;99.90
10905;DHT22;5505;51.450;9.254;2022-11-25T08:29:22;6.20;99.90
10905;DHT22;5505;51.450;9.254;2022-11-25T08:32:08;6.10;99.90
10905;DHT22;5505;51.450;9.254;2022-11-25T08:34:57;6.20;99.90
10905;DHT22;5505;51.450;9.254;2022-11-25T08:37:43;6.20;99.90
10905;DHT22;5505;51.450;9.254;2022-11-25T08:40:31;6.20;99.90
10905;DHT22;5505;51.450;9.254;2022-11-25T08:43:18;6.30;99.90
10905;DHT22;5505;51.450;9.254;2022-11-25T08:46:07;6.40;99.90
10905;DHT22;5505;51.450;9.254;2022-11-25T08:48:55;6.40;99.90
10905;DHT22;5505;51.450;9.254;2022-11-25T08:51:43;6.50;99.90
10905;DHT22;5505;51.450;9.254;2022-11-25T08:54:30;6.50;99.90
10905;DHT22;5505;51.450;9.254;2022-11-25T08:57:17;6.50;99.90
10905;DHT22;5505;51.450;9.254;2022-11-25T09:00:05;6.50;99.90
10905;DHT22;5505;51.450;9.254;2022-11-25T09:02:52;6.60;99.90
10905;DHT22;5505;51.450;9.254;2022-11-25T09:05:40;6.50;99.90
10905;DHT22;5505;51.450;9.254;2022-11-25T09:08:28;6.60;99.90
10905;DHT22;5505;51.450;9.254;2022-11-25T09:11:16;6.60;99.90
10905;DHT22;5505;51.450;9.254;2022-11-25T09:14:02;6.60;99.90
10905;DHT22;5505;51.450;9.254;2022-11-25T09:16:50;6.70;99.90
10905;DHT22;5505;51.450;9.254;2022-11-25T09:19:38;6.70;99.90
10905;DHT22;5505;51.450;9.254;2022-11-25T09:22:25;7.50;99.90
10905;DHT22;5505;51.450;9.254;2022-11-25T09:25:13;6.60;99.90
10905;DHT22;5505;51.450;9.254;2022-11-25T09:28:00;6.70;99.90
10905;DHT22;5505;51.450;9.254;2022-11-25T09:30:47;8.20;99.90
10905;DHT22;5505;51.450;9.254;2022-11-25T09:33:34;6.80;99.90
10905;DHT22;5505;51.450;9.254;2022-11-25T09:36:21;6.90;99.90
10905;DHT22;5505;51.450;9.254;2022-11-25T09:39:09;6.90;99.90
10905;DHT22;5505;51.450;9.254;2022-11-25T09:42:06;6.90;99.90
10905;DHT22;5505;51.450;9.254;2022-11-25T09:45:17;7.00;99.90
10905;DHT22;5505;51.450;9.254;2022-11-25T09:48:40;7.00;99.90
10905;DHT22;5505;51.450;9.254;2022-11-25T09:51:35;7.00;99.90
10905;DHT22;5505;51.450;9.254;2022-11-25T09:54:29;7.10;99.90
10905;DHT22;5505;51.450;9.254;2022-11-25T09:57:21;7.00;99.90
10905;DHT22;5505;51.450;9.254;2022-11-25T10:00:15;7.00;99.90
10905;DHT22;5505;51.450;9.254;2022-11-25T10:03:05;6.90;99.90
10905;DHT22;5505;51.450;9.254;2022-11-25T10:05:58;6.90;99.90
10905;DHT22;5505;51.450;9.254;2022-11-25T10:08:48;7.20;99.90
10905;DHT22;5505;51.450;9.254;2022-11-25T10:11:51;6.90;99.90
10905;DHT22;5505;51.450;9.254;2022-11-25T10:15:02;6.90;99.90
10905;DHT22;5505;51.450;9.254;2022-11-25T10:18:09;7.60;99.90
10905;DHT22;5505;51.450;9.254;2022-11-25T10:21:15;7.60;99.90
10905;DHT22;5505;51.450;9.254;2022-11-25T10:24:16;7.50;99.90
10905;DHT22;5505;51.450;9.254;2022-11-25T10:27:14;7.30;99.90
10905;DHT22;5505;51.450;9.254;2022-11-25T10:30:20;7.50;99.90
10905;DHT22;5505;51.450;9.254;2022-11-25T10:33:13;7.00;99.90
10905;DHT22;5505;51.450;9.254;2022-11-25T10:36:09;7.10;99.90
10905;DHT22;5505;51.450;9.254;2022-11-25T10:39:00;7.10;99.90
10905;DHT22;5505;51.450;9.254;2022-11-25T10:41:54;7.20;99.90
10905;DHT22;5505;51.450;9.254;2022-11-25T10:44:41;7.10;99.90
10905;DHT22;5505;51.450;9.254;2022-11-25T10:47:34;6.80;99.90
10905;DHT22;5505;51.450;9.254;2022-11-25T10:50:28;7.20;99.90
10905;DHT22;5505;51.450;9.254;2022-11-25T10:53:20;7.20;99.90
10905;DHT22;5505;51.450;9.254;2022-11-25T10:56:10;7.20;99.90
10905;DHT22;5505;51.450;9.254;2022-11-25T10:58:57;7.20;99.90
10905;DHT22;5505;51.450;9.254;2022-11-25T11:02:17;7.20;99.90
10905;DHT22;5505;51.450;9.254;2022-11-25T11:05:17;7.20;99.90
10905;DHT22;5505;51.450;9.254;2022-11-25T11:08:20;7.20;99.90
10905;DHT22;5505;51.450;9.254;2022-11-25T11:11:19;7.20;99.90
10905;DHT22;5505;51.450;9.254;2022-11-25T11:14:16;8.70;99.90
10905;DHT22;5505;51.450;9.254;2022-11-25T11:17:04;8.90;99.90
10905;DHT22;5505;51.450;9.254;2022-11-25T11:20:00;7.30;99.90
10905;DHT22;5505;51.450;9.254;2022-11-25T11:22:55;7.40;99.90
10905;DHT22;5505;51.450;9.254;2022-11-25T11:25:52;8.10;99.90
10905;DHT22;5505;51.450;9.254;2022-11-25T11:28:41;7.40;99.90
10905;DHT22;5505;51.450;9.254;2022-11-25T11:31:31;7.60;99.90
10905;DHT22;5505;51.450;9.254;2022-11-25T11:34:32;7.50;99.90
10905;DHT22;5505;51.450;9.254;2022-11-25T11:37:32;7.50;99.90
10905;DHT22;5505;51.450;9.254;2022-11-25T11:40:31;9.00;99.90
10905;DHT22;5505;51.450;9.254;2022-11-25T11:43:34;7.50;99.90
10905;DHT22;5505;51.450;9.254;2022-11-25T11:46:31;7.70;99.90
10905;DHT22;5505;51.450;9.254;2022-11-25T11:49:51;7.70;99.90
10905;DHT22;5505;51.450;9.254;2022-11-25T11:52:54;9.10;99.90
10905;DHT22;5505;51.450;9.254;2022-11-25T11:55:53;8.00;99.90
10905;DHT22;5505;51.450;9.254;2022-11-25T11:58:52;7.80;99.90
10905;DHT22;5505;51.450;9.254;2022-11-25T12:01:50;7.90;99.90
10905;DHT22;5505;51.450;9.254;2022-11-25T12:04:42;8.00;99.90
10905;DHT22;5505;51.450;9.254;2022-11-25T12:07:34;8.00;99.90
10905;DHT22;5505;51.450;9.254;2022-11-25T12:10:25;8.00;99.90
10905;DHT22;5505;51.450;9.254;2022-11-25T12:13:18;8.10;99.90
10905;DHT22;5505;51.450;9.254;2022-11-25T12:16:11;8.20;99.90
10905;DHT22;5505;51.450;9.254;2022-11-25T12:19:03;8.20;99.90
10905;DHT22;5505;51.450;9.254;2022-11-25T12:21:55;9.00;99.90
10905;DHT22;5505;51.450;9.254;2022-11-25T12:24:50;8.30;99.90
10905;DHT22;5505;51.450;9.254;2022-11-25T12:27:43;9.10;99.90
10905;DHT22;5505;51.450;9.254;2022-11-25T12:30:37;8.40;99.90
10905;DHT22;5505;51.450;9.254;2022-11-25T12:33:29;9.80;99.90
10905;DHT22;5505;51.450;9.254;2022-11-25T12:36:27;8.50;99.90
10905;DHT22;5505;51.450;9.254;2022-11-25T12:39:20;8.50;99.90
10905;DHT22;5505;51.450;9.254;2022-11-25T12:42:13;8.50;99.90
10905;DHT22;5505;51.450;9.254;2022-11-25T12:45:06;8.50;99.90
10905;DHT22;5505;51.450;9.254;2022-11-25T12:47:57;8.30;99.90
10905;DHT22;5505;51.450;9.254;2022-11-25T12:50:51;8.40;99.90
10905;DHT22;5505;51.450;9.254;2022-11-25T12:53:49;8.40;99.90
10905;DHT22;5505;51.450;9.254;2022-11-25T12:56:52;8.40;99.90
10905;DHT22;5505;51.450;9.254;2022-11-25T12:59:57;8.40;99.90
10905;DHT22;5505;51.450;9.254;2022-11-25T13:06:35;8.30;99.90
10905;DHT22;5505;51.450;9.254;2022-11-25T13:09:39;8.30;99.90
10905;DHT22;5505;51.450;9.254;2022-11-25T13:12:39;8.20;99.90
10905;DHT22;5505;51.450;9.254;2022-11-25T13:15:30;8.20;99.90
10905;DHT22;5505;51.450;9.254;2022-11-25T13:18:21;8.80;99.90
10905;DHT22;5505;51.450;9.254;2022-11-25T13:21:09;8.30;99.90
10905;DHT22;5505;51.450;9.254;2022-11-25T13:23:58;8.30;99.90
10905;DHT22;5505;51.450;9.254;2022-11-25T13:26:48;8.40;99.90
10905;DHT22;5505;51.450;9.254;2022-11-25T13:29:59;9.10;99.90
10905;DHT22;5505;51.450;9.254;2022-11-25T13:32:46;9.70;99.90
10905;DHT22;5505;51.450;9.254;2022-11-25T13:35:36;8.50;99.90
10905;DHT22;5505;51.450;9.254;2022-11-25T13:41:44;8.50;99.90
10905;DHT22;5505;51.450;9.254;2022-11-25T13:44:34;8.60;99.90
10905;DHT22;5505;51.450;9.254;2022-11-25T13:47:35;8.90;99.90
10905;DHT22;5505;51.450;9.254;2022-11-25T13:50:24;8.60;99.90
10905;DHT22;5505;51.450;9.254;2022-11-25T13:53:20;8.50;99.90
10905;DHT22;5505;51.450;9.254;2022-11-25T13:56:14;8.50;99.90
10905;DHT22;5505;51.450;9.254;2022-11-25T13:59:34;8.40;99.90
10905;DHT22;5505;51.450;9.254;2022-11-25T14:02:34;8.50;99.90
10905;DHT22;5505;51.450;9.254;2022-11-25T14:05:44;8.50;99.90
10905;DHT22;5505;51.450;9.254;2022-11-25T14:08:40;8.40;99.90
10905;DHT22;5505;51.450;9.254;2022-11-25T14:11:37;8.40;99.90
10905;DHT22;5505;51.450;9.254;2022-11-25T14:14:41;8.40;99.90
10905;DHT22;5505;51.450;9.254;2022-11-25T14:18:00;8.40;99.90
10905;DHT22;5505;51.450;9.254;2022-11-25T14:20:54;8.40;99.90
10905;DHT22;5505;51.450;9.254;2022-11-25T14:23:52;8.40;99.90
10905;DHT22;5505;51.450;9.254;2022-11-25T14:26:42;9.70;99.90
10905;DHT22;5505;51.450;9.254;2022-11-25T14:29:36;9.20;99.90
10905;DHT22;5505;51.450;9.254;2022-11-25T14:32:29;8.80;99.90
10905;DHT22;5505;51.450;9.254;2022-11-25T14:35:21;8.30;99.90
10905;DHT22;5505;51.450;9.254;2022-11-25T14:38:13;8.30;99.90
10905;DHT22;5505;51.450;9.254;2022-11-25T14:41:07;8.30;99.90
10905;DHT22;5505;51.450;9.254;2022-11-25T14:44:00;8.40;99.90
10905;DHT22;5505;51.450;9.254;2022-11-25T14:46:51;8.30;99.90
10905;DHT22;5505;51.450;9.254;2022-11-25T14:49:43;8.30;99.90
10905;DHT22;5505;51.450;9.254;2022-11-25T14:52:33;8.40;99.90
10905;DHT22;5505;51.450;9.254;2022-11-25T14:55:27;8.30;99.90
10905;DHT22;5505;51.450;9.254;2022-11-25T14:58:16;8.30;99.90
10905;DHT22;5505;51.450;9.254;2022-11-25T15:01:05;8.20;99.90
10905;DHT22;5505;51.450;9.254;2022-11-25T15:04:01;8.20;99.90
10905;DHT22;5505;51.450;9.254;2022-11-25T15:06:50;8.10;99.90
10905;DHT22;5505;51.450;9.254;2022-11-25T15:09:41;8.10;99.90
10905;DHT22;5505;51.450;9.254;2022-11-25T15:12:31;8.00;99.90
10905;DHT22;5505;51.450;9.254;2022-11-25T15:15:19;8.00;99.90
10905;DHT22;5505;51.450;9.254;2022-11-25T15:18:09;8.10;99.90
10905;DHT22;5505;51.450;9.254;2022-11-25T15:21:00;8.00;99.90
10905;DHT22;5505;51.450;9.254;2022-11-25T15:23:47;7.90;99.90
10905;DHT22;5505;51.450;9.254;2022-11-25T15:26:34;8.80;99.90
10905;DHT22;5505;51.450;9.254;2022-11-25T15:29:22;7.90;99.90
10905;DHT22;5505;51.450;9.254;2022-11-25T15:32:14;9.00;99.90
10905;DHT22;5505;51.450;9.254;2022-11-25T15:35:03;7.70;99.90
10905;DHT22;5505;51.450;9.254;2022-11-25T15:37:52;7.70;99.90
10905;DHT22;5505;51.450;9.254;2022-11-25T15:40:40;7.60;99.90
10905;DHT22;5505;51.450;9.254;2022-11-25T15:43:30;7.50;99.90
10905;DHT22;5505;51.450;9.254;2022-11-25T15:46:17;7.40;99.90
10905;DHT22;5505;51.450;9.254;2022-11-25T15:49:06;7.30;99.90
10905;DHT22;5505;51.450;9.254;2022-11-25T15:52:03;7.70;99.90
10905;DHT22;5505;51.450;9.254;2022-11-25T15:54:53;7.10;99.90
10905;DHT22;5505;51.450;9.254;2022-11-25T15:57:42;7.10;99.90
10905;DHT22;5505;51.450;9.254;2022-11-25T16:00:30;7.10;99.90
10905;DHT22;5505;51.450;9.254;2022-11-25T16:03:19;7.00;99.90
10905;DHT22;5505;51.450;9.254;2022-11-25T16:06:19;7.00;99.90
10905;DHT22;5505;51.450;9.254;2022-11-25T16:09:19;7.00;99.90
10905;DHT22;5505;51.450;9.254;2022-11-25T16:12:13;7.00;99.90
10905;DHT22;5505;51.450;9.254;2022-11-25T16:15:02;7.00;99.90
10905;DHT22;5505;51.450;9.254;2022-11-25T16:17:51;6.90;99.90
10905;DHT22;5505;51.450;9.254;2022-11-25T16:20:45;7.60;99.90
10905;DHT22;5505;51.450;9.254;2022-11-25T16:23:34;6.80;99.90
10905;DHT22;5505;51.450;9.254;2022-11-25T16:26:26;6.80;99.90
10905;DHT22;5505;51.450;9.254;2022-11-25T16:29:16;6.80;99.90
10905;DHT22;5505;51.450;9.254;2022-11-25T16:32:12;6.70;99.90
10905;DHT22;5505;51.450;9.254;2022-11-25T16:35:05;6.70;99.90
10905;DHT22;5505;51.450;9.254;2022-11-25T16:37:56;6.60;99.90
10905;DHT22;5505;51.450;9.254;2022-11-25T16:40:45;6.50;99.90
10905;DHT22;5505;51.450;9.254;2022-11-25T16:43:32;6.40;99.90
10905;DHT22;5505;51.450;9.254;2022-11-25T16:46:19;7.30;99.90
10905;DHT22;5505;51.450;9.254;2022-11-25T16:49:09;6.60;99.90
10905;DHT22;5505;51.450;9.254;2022-11-25T16:51:57;6.40;99.90
10905;DHT22;5505;51.450;9.254;2022-11-25T16:54:44;6.50;99.90
10905;DHT22;5505;51.450;9.254;2022-11-25T16:57:33;6.50;99.90
10905;DHT22;5505;51.450;9.254;2022-11-25T17:00:20;6.60;99.90
10905;DHT22;5505;51.450;9.254;2022-11-25T17:03:08;6.60;99.90
10905;DHT22;5505;51.450;9.254;2022-11-25T17:05:57;6.50;99.90
10905;DHT22;5505;51.450;9.254;2022-11-25T17:08:45;6.30;99.90
10905;DHT22;5505;51.450;9.254;2022-11-25T17:11:35;6.30;99.90
10905;DHT22;5505;51.450;9.254;2022-11-25T17:14:29;6.20;99.90
10905;DHT22;5505;51.450;9.254;2022-11-25T17:17:20;6.10;99.90
10905;DHT22;5505;51.450;9.254;2022-11-25T17:20:13;6.10;99.90
10905;DHT22;5505;51.450;9.254;2022-11-25T17:23:01;6.10;99.90
10905;DHT22;5505;51.450;9.254;2022-11-25T17:25:48;6.20;99.90
10905;DHT22;5505;51.450;9.254;2022-11-25T17:28:35;6.20;99.90
10905;DHT22;5505;51.450;9.254;2022-11-25T17:31:25;6.20;99.90
10905;DHT22;5505;51.450;9.254;2022-11-25T17:34:15;6.30;99.90
10905;DHT22;5505;51.450;9.254;2022-11-25T17:37:03;6.40;99.90
10905;DHT22;5505;51.450;9.254;2022-11-25T17:39:50;6.40;99.90
10905;DHT22;5505;51.450;9.254;2022-11-25T17:42:39;6.50;99.90
10905;DHT22;5505;51.450;9.254;2022-11-25T17:45:26;6.50;99.90
10905;DHT22;5505;51.450;9.254;2022-11-25T17:48:16;6.50;99.90
10905;DHT22;5505;51.450;9.254;2022-11-25T17:51:03;6.60;99.90
10905;DHT22;5505;51.450;9.254;2022-11-25T17:53:51;6.60;99.90
10905;DHT22;5505;51.450;9.254;2022-11-25T17:56:38;6.70;99.90
10905;DHT22;5505;51.450;9.254;2022-11-25T17:59:30;6.80;99.90
10905;DHT22;5505;51.450;9.254;2022-11-25T18:02:20;6.80;99.90
10905;DHT22;5505;51.450;9.254;2022-11-25T18:05:16;6.80;99.90
10905;DHT22;5505;51.450;9.254;2022-11-25T18:08:04;6.80;99.90
10905;DHT22;5505;51.450;9.254;2022-11-25T18:10:51;6.90;99.90
10905;DHT22;5505;51.450;9.254;2022-11-25T18:13:39;6.90;99.90
10905;DHT22;5505;51.450;9.254;2022-11-25T18:16:28;6.90;99.90
10905;DHT22;5505;51.450;9.254;2022-11-25T18:19:15;7.30;99.90
10905;DHT22;5505;51.450;9.254;2022-11-25T18:22:14;8.10;99.90
10905;DHT22;5505;51.450;9.254;2022-11-25T18:25:01;6.90;99.90
10905;DHT22;5505;51.450;9.254;2022-11-25T18:27:49;6.90;99.90
10905;DHT22;5505;51.450;9.254;2022-11-25T18:30:39;7.00;99.90
10905;DHT22;5505;51.450;9.254;2022-11-25T18:33:26;7.00;99.90
10905;DHT22;5505;51.450;9.254;2022-11-25T18:36:13;7.10;99.90
10905;DHT22;5505;51.450;9.254;2022-11-25T18:39:02;7.20;99.90
10905;DHT22;5505;51.450;9.254;2022-11-25T18:41:49;7.20;99.90